sensor_id;sensor_type;location;lat;lon;timestamp;P1;durP1;ratioP1;P2;durP2;ratioP2
69712;SDS011;56980;51.826;4.424;2022-09-01T00:01:03;1.92;;;1.15;;
69712;SDS011;56980;51.826;4.424;2022-09-01T00:03:44;2.15;;;1.20;;
69712;SDS011;56980;51.826;4.424;2022-09-01T00:06:13;3.00;;;1.17;;
69712;SDS011;56980;51.826;4.424;2022-09-01T00:08:39;1.90;;;1.10;;
69712;SDS011;56980;51.826;4.424;2022-09-01T00:11:05;1.88;;;1.30;;
69712;SDS011;56980;51.826;4.424;2022-09-01T00:13:30;4.83;;;1.40;;
69712;SDS011;56980;51.826;4.424;2022-09-01T00:15:58;2.60;;;1.27;;
69712;SDS011;56980;51.826;4.424;2022-09-01T00:18:25;1.63;;;0.93;;
69712;SDS011;56980;51.826;4.424;2022-09-01T00:20:50;3.05;;;1.40;;
69712;SDS011;56980;51.826;4.424;2022-09-01T00:23:16;3.17;;;1.60;;
69712;SDS011;56980;51.826;4.424;2022-09-01T00:25:41;3.03;;;1.30;;
69712;SDS011;56980;51.826;4.424;2022-09-01T00:28:06;3.30;;;1.30;;
69712;SDS011;56980;51.826;4.424;2022-09-01T00:30:32;3.20;;;1.40;;
69712;SDS011;56980;51.826;4.424;2022-09-01T00:32:57;2.63;;;1.13;;
69712;SDS011;56980;51.826;4.424;2022-09-01T00:35:23;1.80;;;1.27;;
69712;SDS011;56980;51.826;4.424;2022-09-01T00:37:48;2.70;;;1.20;;
69712;SDS011;56980;51.826;4.424;2022-09-01T00:40:15;2.38;;;1.20;;
69712;SDS011;56980;51.826;4.424;2022-09-01T00:42:41;3.60;;;1.13;;
69712;SDS011;56980;51.826;4.424;2022-09-01T00:45:08;5.05;;;1.40;;
69712;SDS011;56980;51.826;4.424;2022-09-01T00:47:35;2.40;;;1.20;;
69712;SDS011;56980;51.826;4.424;2022-09-01T00:50:02;7.38;;;1.40;;
69712;SDS011;56980;51.826;4.424;2022-09-01T00:52:31;3.83;;;1.40;;
69712;SDS011;56980;51.826;4.424;2022-09-01T00:55:07;2.43;;;1.10;;
69712;SDS011;56980;51.826;4.424;2022-09-01T00:57:37;3.72;;;1.40;;
69712;SDS011;56980;51.826;4.424;2022-09-01T01:00:11;4.40;;;1.63;;
69712;SDS011;56980;51.826;4.424;2022-09-01T01:02:42;3.33;;;1.30;;
69712;SDS011;56980;51.826;4.424;2022-09-01T01:05:09;2.22;;;1.40;;
69712;SDS011;56980;51.826;4.424;2022-09-01T01:07:35;2.07;;;1.37;;
69712;SDS011;56980;51.826;4.424;2022-09-01T01:10:08;4.82;;;1.40;;
69712;SDS011;56980;51.826;4.424;2022-09-01T01:12:38;1.85;;;1.08;;
69712;SDS011;56980;51.826;4.424;2022-09-01T01:15:05;6.30;;;1.27;;
69712;SDS011;56980;51.826;4.424;2022-09-01T01:17:32;3.60;;;1.77;;
69712;SDS011;56980;51.826;4.424;2022-09-01T01:19:57;2.47;;;1.23;;
69712;SDS011;56980;51.826;4.424;2022-09-01T01:22:54;3.05;;;1.25;;
69712;SDS011;56980;51.826;4.424;2022-09-01T01:28:14;3.00;;;1.17;;
69712;SDS011;56980;51.826;4.424;2022-09-01T01:30:44;1.92;;;0.95;;
69712;SDS011;56980;51.826;4.424;2022-09-01T01:33:15;4.38;;;1.40;;
69712;SDS011;56980;51.826;4.424;2022-09-01T01:35:41;1.98;;;1.17;;
69712;SDS011;56980;51.826;4.424;2022-09-01T01:38:07;4.72;;;1.30;;
69712;SDS011;56980;51.826;4.424;2022-09-01T01:40:33;1.87;;;1.00;;
69712;SDS011;56980;51.826;4.424;2022-09-01T01:43:00;3.00;;;1.13;;
69712;SDS011;56980;51.826;4.424;2022-09-01T01:45:26;9.85;;;2.63;;
69712;SDS011;56980;51.826;4.424;2022-09-01T01:47:52;7.17;;;1.47;;
69712;SDS011;56980;51.826;4.424;2022-09-01T01:50:26;3.72;;;1.30;;
69712;SDS011;56980;51.826;4.424;2022-09-01T01:52:57;3.17;;;1.10;;
69712;SDS011;56980;51.826;4.424;2022-09-01T01:55:24;2.40;;;1.20;;
69712;SDS011;56980;51.826;4.424;2022-09-01T01:57:51;4.13;;;1.30;;
69712;SDS011;56980;51.826;4.424;2022-09-01T02:00:18;1.83;;;1.10;;
69712;SDS011;56980;51.826;4.424;2022-09-01T02:02:46;4.75;;;1.27;;
69712;SDS011;56980;51.826;4.424;2022-09-01T02:05:38;3.45;;;1.50;;
69712;SDS011;56980;51.826;4.424;2022-09-01T02:08:04;4.35;;;1.75;;
69712;SDS011;56980;51.826;4.424;2022-09-01T02:10:32;5.87;;;1.50;;
69712;SDS011;56980;51.826;4.424;2022-09-01T02:13:03;3.83;;;1.50;;
69712;SDS011;56980;51.826;4.424;2022-09-01T02:15:32;4.18;;;1.50;;
69712;SDS011;56980;51.826;4.424;2022-09-01T02:18:06;3.67;;;1.35;;
69712;SDS011;56980;51.826;4.424;2022-09-01T02:20:31;1.80;;;1.10;;
69712;SDS011;56980;51.826;4.424;2022-09-01T02:22:57;3.37;;;1.40;;
69712;SDS011;56980;51.826;4.424;2022-09-01T02:25:22;3.45;;;1.60;;
69712;SDS011;56980;51.826;4.424;2022-09-01T02:27:48;4.87;;;1.70;;
69712;SDS011;56980;51.826;4.424;2022-09-01T02:30:17;5.18;;;1.52;;
69712;SDS011;56980;51.826;4.424;2022-09-01T02:32:43;1.63;;;1.27;;
69712;SDS011;56980;51.826;4.424;2022-09-01T02:35:08;2.43;;;1.60;;
69712;SDS011;56980;51.826;4.424;2022-09-01T02:37:34;6.22;;;1.50;;
69712;SDS011;56980;51.826;4.424;2022-09-01T02:40:00;2.20;;;1.30;;
69712;SDS011;56980;51.826;4.424;2022-09-01T02:42:26;7.30;;;1.47;;
69712;SDS011;56980;51.826;4.424;2022-09-01T02:44:53;4.15;;;1.35;;
69712;SDS011;56980;51.826;4.424;2022-09-01T02:47:19;1.88;;;1.17;;
69712;SDS011;56980;51.826;4.424;2022-09-01T02:49:47;3.70;;;1.20;;
69712;SDS011;56980;51.826;4.424;2022-09-01T02:52:14;3.72;;;1.45;;
69712;SDS011;56980;51.826;4.424;2022-09-01T02:54:42;4.72;;;1.45;;
69712;SDS011;56980;51.826;4.424;2022-09-01T02:57:10;5.03;;;1.52;;
69712;SDS011;56980;51.826;4.424;2022-09-01T02:59:36;2.67;;;1.42;;
69712;SDS011;56980;51.826;4.424;2022-09-01T03:02:02;2.97;;;1.33;;
69712;SDS011;56980;51.826;4.424;2022-09-01T03:04:28;5.90;;;1.80;;
69712;SDS011;56980;51.826;4.424;2022-09-01T03:06:57;4.18;;;1.10;;
69712;SDS011;56980;51.826;4.424;2022-09-01T03:09:23;2.27;;;1.33;;
69712;SDS011;56980;51.826;4.424;2022-09-01T03:11:49;3.17;;;1.40;;
69712;SDS011;56980;51.826;4.424;2022-09-01T03:14:16;4.53;;;1.40;;
69712;SDS011;56980;51.826;4.424;2022-09-01T03:16:42;2.95;;;1.20;;
69712;SDS011;56980;51.826;4.424;2022-09-01T03:19:08;4.07;;;1.40;;
69712;SDS011;56980;51.826;4.424;2022-09-01T03:21:37;1.88;;;1.23;;
69712;SDS011;56980;51.826;4.424;2022-09-01T03:24:05;4.70;;;1.80;;
69712;SDS011;56980;51.826;4.424;2022-09-01T03:26:34;4.78;;;1.30;;
69712;SDS011;56980;51.826;4.424;2022-09-01T03:29:01;4.15;;;1.38;;
69712;SDS011;56980;51.826;4.424;2022-09-01T03:31:27;2.83;;;1.50;;
69712;SDS011;56980;51.826;4.424;2022-09-01T03:33:54;3.80;;;1.60;;
69712;SDS011;56980;51.826;4.424;2022-09-01T03:36:21;4.05;;;1.70;;
69712;SDS011;56980;51.826;4.424;2022-09-01T03:38:49;6.28;;;1.60;;
69712;SDS011;56980;51.826;4.424;2022-09-01T03:41:17;4.33;;;1.70;;
69712;SDS011;56980;51.826;4.424;2022-09-01T03:43:46;3.03;;;1.60;;
69712;SDS011;56980;51.826;4.424;2022-09-01T03:46:13;6.35;;;1.92;;
69712;SDS011;56980;51.826;4.424;2022-09-01T03:48:45;2.53;;;1.50;;
69712;SDS011;56980;51.826;4.424;2022-09-01T03:51:14;6.97;;;1.33;;
69712;SDS011;56980;51.826;4.424;2022-09-01T03:53:39;2.23;;;1.60;;
69712;SDS011;56980;51.826;4.424;2022-09-01T03:56:05;3.60;;;1.60;;
69712;SDS011;56980;51.826;4.424;2022-09-01T03:58:31;4.70;;;1.63;;
69712;SDS011;56980;51.826;4.424;2022-09-01T04:00:57;4.23;;;2.03;;
69712;SDS011;56980;51.826;4.424;2022-09-01T04:03:29;7.53;;;2.50;;
69712;SDS011;56980;51.826;4.424;2022-09-01T04:05:59;2.97;;;1.80;;
69712;SDS011;56980;51.826;4.424;2022-09-01T04:08:26;5.20;;;1.52;;
69712;SDS011;56980;51.826;4.424;2022-09-01T04:10:55;5.20;;;1.63;;
69712;SDS011;56980;51.826;4.424;2022-09-01T04:13:41;3.53;;;1.40;;
69712;SDS011;56980;51.826;4.424;2022-09-01T04:16:14;6.38;;;1.35;;
69712;SDS011;56980;51.826;4.424;2022-09-01T04:19:20;2.25;;;1.50;;
69712;SDS011;56980;51.826;4.424;2022-09-01T04:21:52;2.55;;;1.45;;
69712;SDS011;56980;51.826;4.424;2022-09-01T04:24:20;3.38;;;1.50;;
69712;SDS011;56980;51.826;4.424;2022-09-01T04:26:48;3.23;;;1.27;;
69712;SDS011;56980;51.826;4.424;2022-09-01T04:29:19;3.80;;;1.65;;
69712;SDS011;56980;51.826;4.424;2022-09-01T04:31:51;5.50;;;1.60;;
69712;SDS011;56980;51.826;4.424;2022-09-01T04:34:21;3.28;;;1.40;;
69712;SDS011;56980;51.826;4.424;2022-09-01T04:36:48;3.42;;;1.67;;
69712;SDS011;56980;51.826;4.424;2022-09-01T04:39:19;3.67;;;2.07;;
69712;SDS011;56980;51.826;4.424;2022-09-01T04:41:45;4.00;;;1.65;;
69712;SDS011;56980;51.826;4.424;2022-09-01T04:44:11;4.47;;;1.90;;
69712;SDS011;56980;51.826;4.424;2022-09-01T04:46:40;2.50;;;1.57;;
69712;SDS011;56980;51.826;4.424;2022-09-01T04:49:08;4.55;;;1.50;;
69712;SDS011;56980;51.826;4.424;2022-09-01T04:51:42;3.45;;;1.70;;
69712;SDS011;56980;51.826;4.424;2022-09-01T04:54:09;4.00;;;1.50;;
69712;SDS011;56980;51.826;4.424;2022-09-01T04:56:38;3.15;;;1.48;;
69712;SDS011;56980;51.826;4.424;2022-09-01T04:59:06;3.27;;;2.10;;
69712;SDS011;56980;51.826;4.424;2022-09-01T05:01:35;5.75;;;1.65;;
69712;SDS011;56980;51.826;4.424;2022-09-01T05:04:10;2.75;;;1.75;;
69712;SDS011;56980;51.826;4.424;2022-09-01T05:06:42;2.47;;;1.60;;
69712;SDS011;56980;51.826;4.424;2022-09-01T05:09:11;6.60;;;1.92;;
69712;SDS011;56980;51.826;4.424;2022-09-01T05:11:37;7.30;;;1.80;;
69712;SDS011;56980;51.826;4.424;2022-09-01T05:14:09;3.78;;;1.90;;
69712;SDS011;56980;51.826;4.424;2022-09-01T05:16:38;4.22;;;1.95;;
69712;SDS011;56980;51.826;4.424;2022-09-01T05:19:07;6.63;;;2.50;;
69712;SDS011;56980;51.826;4.424;2022-09-01T05:21:39;5.25;;;2.00;;
69712;SDS011;56980;51.826;4.424;2022-09-01T05:24:09;3.73;;;1.90;;
69712;SDS011;56980;51.826;4.424;2022-09-01T05:26:39;3.80;;;1.83;;
69712;SDS011;56980;51.826;4.424;2022-09-01T05:29:06;6.13;;;2.08;;
69712;SDS011;56980;51.826;4.424;2022-09-01T05:31:37;3.88;;;1.63;;
69712;SDS011;56980;51.826;4.424;2022-09-01T05:34:04;8.85;;;1.80;;
69712;SDS011;56980;51.826;4.424;2022-09-01T05:36:31;6.10;;;2.10;;
69712;SDS011;56980;51.826;4.424;2022-09-01T05:38:57;4.35;;;2.05;;
69712;SDS011;56980;51.826;4.424;2022-09-01T05:41:24;2.83;;;1.95;;
69712;SDS011;56980;51.826;4.424;2022-09-01T05:43:50;5.37;;;3.00;;
69712;SDS011;56980;51.826;4.424;2022-09-01T05:46:21;6.97;;;1.90;;
69712;SDS011;56980;51.826;4.424;2022-09-01T05:48:49;8.00;;;2.10;;
69712;SDS011;56980;51.826;4.424;2022-09-01T05:51:17;7.45;;;2.03;;
69712;SDS011;56980;51.826;4.424;2022-09-01T05:53:50;4.93;;;2.20;;
69712;SDS011;56980;51.826;4.424;2022-09-01T05:56:17;5.05;;;1.83;;
69712;SDS011;56980;51.826;4.424;2022-09-01T05:58:43;3.83;;;2.17;;
69712;SDS011;56980;51.826;4.424;2022-09-01T06:01:14;3.03;;;1.95;;
69712;SDS011;56980;51.826;4.424;2022-09-01T06:03:55;5.32;;;2.35;;
69712;SDS011;56980;51.826;4.424;2022-09-01T06:06:26;4.20;;;1.80;;
69712;SDS011;56980;51.826;4.424;2022-09-01T06:08:52;7.25;;;2.13;;
69712;SDS011;56980;51.826;4.424;2022-09-01T06:11:22;7.93;;;2.30;;
69712;SDS011;56980;51.826;4.424;2022-09-01T06:13:48;5.15;;;2.00;;
69712;SDS011;56980;51.826;4.424;2022-09-01T06:16:16;4.50;;;1.70;;
69712;SDS011;56980;51.826;4.424;2022-09-01T06:18:44;2.15;;;1.63;;
69712;SDS011;56980;51.826;4.424;2022-09-01T06:21:10;4.18;;;1.90;;
69712;SDS011;56980;51.826;4.424;2022-09-01T06:23:39;3.53;;;1.95;;
69712;SDS011;56980;51.826;4.424;2022-09-01T06:26:15;4.33;;;1.60;;
69712;SDS011;56980;51.826;4.424;2022-09-01T06:28:42;4.38;;;1.60;;
69712;SDS011;56980;51.826;4.424;2022-09-01T06:31:08;7.40;;;2.00;;
69712;SDS011;56980;51.826;4.424;2022-09-01T06:33:34;9.13;;;1.80;;
69712;SDS011;56980;51.826;4.424;2022-09-01T06:36:00;4.45;;;1.85;;
69712;SDS011;56980;51.826;4.424;2022-09-01T06:38:28;3.80;;;1.88;;
69712;SDS011;56980;51.826;4.424;2022-09-01T06:41:00;6.27;;;2.10;;
69712;SDS011;56980;51.826;4.424;2022-09-01T06:43:28;5.00;;;2.00;;
69712;SDS011;56980;51.826;4.424;2022-09-01T06:45:55;4.25;;;1.90;;
69712;SDS011;56980;51.826;4.424;2022-09-01T06:48:20;3.85;;;1.80;;
69712;SDS011;56980;51.826;4.424;2022-09-01T06:50:47;4.15;;;1.95;;
69712;SDS011;56980;51.826;4.424;2022-09-01T06:53:13;3.58;;;1.80;;
69712;SDS011;56980;51.826;4.424;2022-09-01T06:55:42;5.50;;;1.95;;
69712;SDS011;56980;51.826;4.424;2022-09-01T06:58:09;2.77;;;1.97;;
69712;SDS011;56980;51.826;4.424;2022-09-01T07:00:36;3.92;;;1.95;;
69712;SDS011;56980;51.826;4.424;2022-09-01T07:03:06;8.98;;;2.10;;
69712;SDS011;56980;51.826;4.424;2022-09-01T07:05:33;7.35;;;2.30;;
69712;SDS011;56980;51.826;4.424;2022-09-01T07:08:10;5.57;;;2.17;;
69712;SDS011;56980;51.826;4.424;2022-09-01T07:10:40;4.47;;;2.00;;
69712;SDS011;56980;51.826;4.424;2022-09-01T07:13:09;7.05;;;1.83;;
69712;SDS011;56980;51.826;4.424;2022-09-01T07:15:40;2.95;;;2.40;;
69712;SDS011;56980;51.826;4.424;2022-09-01T07:18:06;3.78;;;2.08;;
69712;SDS011;56980;51.826;4.424;2022-09-01T07:20:31;2.85;;;1.70;;
69712;SDS011;56980;51.826;4.424;2022-09-01T07:23:02;11.25;;;2.17;;
69712;SDS011;56980;51.826;4.424;2022-09-01T07:25:28;3.67;;;2.17;;
69712;SDS011;56980;51.826;4.424;2022-09-01T07:27:55;11.27;;;2.08;;
69712;SDS011;56980;51.826;4.424;2022-09-01T07:30:23;7.28;;;2.25;;
69712;SDS011;56980;51.826;4.424;2022-09-01T07:32:49;3.00;;;2.20;;
69712;SDS011;56980;51.826;4.424;2022-09-01T07:35:16;6.30;;;2.00;;
69712;SDS011;56980;51.826;4.424;2022-09-01T07:37:44;5.55;;;2.10;;
69712;SDS011;56980;51.826;4.424;2022-09-01T07:40:12;5.75;;;2.13;;
69712;SDS011;56980;51.826;4.424;2022-09-01T07:42:44;6.55;;;2.20;;
69712;SDS011;56980;51.826;4.424;2022-09-01T07:45:14;3.83;;;2.20;;
69712;SDS011;56980;51.826;4.424;2022-09-01T07:47:41;3.75;;;2.00;;
69712;SDS011;56980;51.826;4.424;2022-09-01T07:50:09;4.82;;;2.03;;
69712;SDS011;56980;51.826;4.424;2022-09-01T07:52:37;9.10;;;3.00;;
69712;SDS011;56980;51.826;4.424;2022-09-01T07:55:13;4.47;;;2.20;;
69712;SDS011;56980;51.826;4.424;2022-09-01T07:57:41;8.43;;;2.27;;
69712;SDS011;56980;51.826;4.424;2022-09-01T08:00:10;4.20;;;2.30;;
69712;SDS011;56980;51.826;4.424;2022-09-01T08:02:37;3.50;;;2.38;;
69712;SDS011;56980;51.826;4.424;2022-09-01T08:05:07;5.05;;;2.60;;
69712;SDS011;56980;51.826;4.424;2022-09-01T08:07:35;7.25;;;2.60;;
69712;SDS011;56980;51.826;4.424;2022-09-01T08:10:01;6.77;;;2.50;;
69712;SDS011;56980;51.826;4.424;2022-09-01T08:12:28;6.53;;;2.70;;
69712;SDS011;56980;51.826;4.424;2022-09-01T08:14:54;4.33;;;2.60;;
69712;SDS011;56980;51.826;4.424;2022-09-01T08:17:19;5.10;;;2.25;;
69712;SDS011;56980;51.826;4.424;2022-09-01T08:19:45;7.03;;;2.80;;
69712;SDS011;56980;51.826;4.424;2022-09-01T08:22:11;12.98;;;2.70;;
69712;SDS011;56980;51.826;4.424;2022-09-01T08:24:37;6.68;;;3.03;;
69712;SDS011;56980;51.826;4.424;2022-09-01T08:27:02;6.47;;;2.50;;
69712;SDS011;56980;51.826;4.424;2022-09-01T08:29:28;5.47;;;2.50;;
69712;SDS011;56980;51.826;4.424;2022-09-01T08:31:54;5.03;;;2.50;;
69712;SDS011;56980;51.826;4.424;2022-09-01T08:34:19;4.50;;;2.27;;
69712;SDS011;56980;51.826;4.424;2022-09-01T08:36:44;6.93;;;2.57;;
69712;SDS011;56980;51.826;4.424;2022-09-01T08:39:10;5.25;;;2.15;;
69712;SDS011;56980;51.826;4.424;2022-09-01T08:47:09;6.63;;;2.42;;
69712;SDS011;56980;51.826;4.424;2022-09-01T08:49:37;4.53;;;2.20;;
69712;SDS011;56980;51.826;4.424;2022-09-01T08:54:45;11.15;;;2.80;;
69712;SDS011;56980;51.826;4.424;2022-09-01T08:57:31;3.57;;;2.17;;
69712;SDS011;56980;51.826;4.424;2022-09-01T08:59:59;3.70;;;2.25;;
69712;SDS011;56980;51.826;4.424;2022-09-01T09:10:28;6.70;;;2.43;;
69712;SDS011;56980;51.826;4.424;2022-09-01T09:13:06;3.05;;;2.22;;
69712;SDS011;56980;51.826;4.424;2022-09-01T09:15:49;6.25;;;2.38;;
69712;SDS011;56980;51.826;4.424;2022-09-01T09:18:39;8.55;;;2.63;;
69712;SDS011;56980;51.826;4.424;2022-09-01T09:21:13;2.70;;;2.20;;
69712;SDS011;56980;51.826;4.424;2022-09-01T09:23:47;3.97;;;2.10;;
69712;SDS011;56980;51.826;4.424;2022-09-01T09:26:22;4.57;;;2.00;;
69712;SDS011;56980;51.826;4.424;2022-09-01T09:28:47;4.53;;;2.20;;
69712;SDS011;56980;51.826;4.424;2022-09-01T09:34:02;3.97;;;1.77;;
69712;SDS011;56980;51.826;4.424;2022-09-01T09:36:39;5.63;;;2.25;;
69712;SDS011;56980;51.826;4.424;2022-09-01T09:39:13;6.63;;;1.93;;
69712;SDS011;56980;51.826;4.424;2022-09-01T09:41:41;3.30;;;2.00;;
69712;SDS011;56980;51.826;4.424;2022-09-01T09:46:54;7.03;;;2.17;;
69712;SDS011;56980;51.826;4.424;2022-09-01T09:54:26;7.55;;;2.40;;
69712;SDS011;56980;51.826;4.424;2022-09-01T09:59:53;6.63;;;2.30;;
69712;SDS011;56980;51.826;4.424;2022-09-01T10:04:48;3.97;;;2.43;;
69712;SDS011;56980;51.826;4.424;2022-09-01T10:07:28;4.03;;;2.40;;
69712;SDS011;56980;51.826;4.424;2022-09-01T10:10:00;4.37;;;2.53;;
69712;SDS011;56980;51.826;4.424;2022-09-01T10:12:31;3.33;;;2.38;;
69712;SDS011;56980;51.826;4.424;2022-09-01T10:17:35;3.47;;;2.05;;
69712;SDS011;56980;51.826;4.424;2022-09-01T10:20:06;3.53;;;2.00;;
69712;SDS011;56980;51.826;4.424;2022-09-01T10:22:37;3.63;;;2.10;;
69712;SDS011;56980;51.826;4.424;2022-09-01T10:25:03;3.30;;;2.70;;
69712;SDS011;56980;51.826;4.424;2022-09-01T10:27:32;4.70;;;2.28;;
69712;SDS011;56980;51.826;4.424;2022-09-01T10:30:09;5.25;;;2.10;;
69712;SDS011;56980;51.826;4.424;2022-09-01T10:32:44;7.25;;;2.00;;
69712;SDS011;56980;51.826;4.424;2022-09-01T10:35:47;4.23;;;1.77;;
69712;SDS011;56980;51.826;4.424;2022-09-01T10:38:07;7.43;;;1.95;;
69712;SDS011;56980;51.826;4.424;2022-09-01T10:40:39;4.88;;;2.28;;
69712;SDS011;56980;51.826;4.424;2022-09-01T10:43:21;10.63;;;1.77;;
69712;SDS011;56980;51.826;4.424;2022-09-01T10:45:47;3.15;;;1.20;;
69712;SDS011;56980;51.826;4.424;2022-09-01T10:50:45;4.60;;;1.70;;
69712;SDS011;56980;51.826;4.424;2022-09-01T10:56:00;4.60;;;1.27;;
69712;SDS011;56980;51.826;4.424;2022-09-01T11:04:10;2.40;;;1.52;;
69712;SDS011;56980;51.826;4.424;2022-09-01T11:09:05;2.40;;;1.40;;
69712;SDS011;56980;51.826;4.424;2022-09-01T11:11:43;2.97;;;1.50;;
69712;SDS011;56980;51.826;4.424;2022-09-01T11:14:15;2.42;;;1.80;;
69712;SDS011;56980;51.826;4.424;2022-09-01T11:16:43;2.72;;;1.40;;
69712;SDS011;56980;51.826;4.424;2022-09-01T11:28:07;4.07;;;1.65;;
69712;SDS011;56980;51.826;4.424;2022-09-01T11:30:40;2.72;;;1.27;;
69712;SDS011;56980;51.826;4.424;2022-09-01T11:36:11;5.13;;;1.40;;
69712;SDS011;56980;51.826;4.424;2022-09-01T11:38:41;3.63;;;1.20;;
69712;SDS011;56980;51.826;4.424;2022-09-01T11:41:25;6.80;;;1.63;;
69712;SDS011;56980;51.826;4.424;2022-09-01T11:43:57;3.08;;;1.52;;
69712;SDS011;56980;51.826;4.424;2022-09-01T11:46:27;1.83;;;1.30;;
69712;SDS011;56980;51.826;4.424;2022-09-01T11:48:57;5.13;;;1.20;;
69712;SDS011;56980;51.826;4.424;2022-09-01T11:51:27;4.38;;;1.52;;
69712;SDS011;56980;51.826;4.424;2022-09-01T11:54:01;4.75;;;1.20;;
69712;SDS011;56980;51.826;4.424;2022-09-01T11:56:28;4.88;;;1.38;;
69712;SDS011;56980;51.826;4.424;2022-09-01T11:58:54;4.07;;;1.40;;
69712;SDS011;56980;51.826;4.424;2022-09-01T12:01:30;5.07;;;2.00;;
69712;SDS011;56980;51.826;4.424;2022-09-01T12:04:06;2.83;;;1.30;;
69712;SDS011;56980;51.826;4.424;2022-09-01T12:06:49;3.00;;;1.40;;
69712;SDS011;56980;51.826;4.424;2022-09-01T12:09:30;3.08;;;1.45;;
69712;SDS011;56980;51.826;4.424;2022-09-01T12:11:57;9.27;;;1.70;;
69712;SDS011;56980;51.826;4.424;2022-09-01T12:14:23;3.10;;;1.13;;
69712;SDS011;56980;51.826;4.424;2022-09-01T12:16:59;3.63;;;1.47;;
69712;SDS011;56980;51.826;4.424;2022-09-01T12:19:28;4.20;;;1.38;;
69712;SDS011;56980;51.826;4.424;2022-09-01T12:21:58;6.85;;;1.75;;
69712;SDS011;56980;51.826;4.424;2022-09-01T12:24:26;5.43;;;1.50;;
69712;SDS011;56980;51.826;4.424;2022-09-01T12:26:53;2.30;;;1.27;;
69712;SDS011;56980;51.826;4.424;2022-09-01T12:29:21;5.47;;;1.40;;
69712;SDS011;56980;51.826;4.424;2022-09-01T12:31:48;12.20;;;1.95;;
69712;SDS011;56980;51.826;4.424;2022-09-01T12:37:05;5.43;;;1.90;;
69712;SDS011;56980;51.826;4.424;2022-09-01T12:39:38;2.63;;;1.27;;
69712;SDS011;56980;51.826;4.424;2022-09-01T12:42:10;1.65;;;1.02;;
69712;SDS011;56980;51.826;4.424;2022-09-01T12:50:00;3.07;;;1.20;;
69712;SDS011;56980;51.826;4.424;2022-09-01T12:52:26;2.22;;;1.25;;
69712;SDS011;56980;51.826;4.424;2022-09-01T13:00:52;2.00;;;1.20;;
69712;SDS011;56980;51.826;4.424;2022-09-01T13:05:36;8.48;;;1.60;;
69712;SDS011;56980;51.826;4.424;2022-09-01T13:08:10;41.20;;;4.30;;
69712;SDS011;56980;51.826;4.424;2022-09-01T13:10:43;5.88;;;1.45;;
69712;SDS011;56980;51.826;4.424;2022-09-01T13:13:10;5.22;;;1.50;;
69712;SDS011;56980;51.826;4.424;2022-09-01T13:15:39;37.07;;;5.20;;
69712;SDS011;56980;51.826;4.424;2022-09-01T13:18:08;4.43;;;1.30;;
69712;SDS011;56980;51.826;4.424;2022-09-01T13:20:34;2.92;;;1.10;;
69712;SDS011;56980;51.826;4.424;2022-09-01T13:23:00;3.03;;;1.23;;
69712;SDS011;56980;51.826;4.424;2022-09-01T13:25:25;3.57;;;1.80;;
69712;SDS011;56980;51.826;4.424;2022-09-01T13:27:51;1.80;;;1.27;;
69712;SDS011;56980;51.826;4.424;2022-09-01T13:30:19;2.38;;;1.10;;
69712;SDS011;56980;51.826;4.424;2022-09-01T13:32:52;12.27;;;1.70;;
69712;SDS011;56980;51.826;4.424;2022-09-01T13:35:18;8.75;;;1.70;;
69712;SDS011;56980;51.826;4.424;2022-09-01T13:37:46;6.83;;;1.47;;
69712;SDS011;56980;51.826;4.424;2022-09-01T13:40:12;4.70;;;1.10;;
69712;SDS011;56980;51.826;4.424;2022-09-01T13:42:41;3.28;;;1.20;;
69712;SDS011;56980;51.826;4.424;2022-09-01T13:45:08;1.83;;;1.00;;
69712;SDS011;56980;51.826;4.424;2022-09-01T13:47:36;4.90;;;1.10;;
69712;SDS011;56980;51.826;4.424;2022-09-01T13:50:03;1.73;;;1.00;;
69712;SDS011;56980;51.826;4.424;2022-09-01T13:52:29;3.25;;;1.23;;
69712;SDS011;56980;51.826;4.424;2022-09-01T13:54:54;2.13;;;1.00;;
69712;SDS011;56980;51.826;4.424;2022-09-01T13:57:20;4.60;;;1.10;;
69712;SDS011;56980;51.826;4.424;2022-09-01T13:59:45;2.55;;;1.13;;
69712;SDS011;56980;51.826;4.424;2022-09-01T14:02:10;1.40;;;0.90;;
69712;SDS011;56980;51.826;4.424;2022-09-01T14:04:36;3.70;;;1.27;;
69712;SDS011;56980;51.826;4.424;2022-09-01T14:07:02;1.43;;;1.00;;
69712;SDS011;56980;51.826;4.424;2022-09-01T14:09:28;2.40;;;1.00;;
69712;SDS011;56980;51.826;4.424;2022-09-01T14:11:53;2.23;;;1.10;;
69712;SDS011;56980;51.826;4.424;2022-09-01T14:14:19;1.45;;;0.90;;
69712;SDS011;56980;51.826;4.424;2022-09-01T14:16:45;2.05;;;0.80;;
69712;SDS011;56980;51.826;4.424;2022-09-01T14:19:11;2.10;;;1.13;;
69712;SDS011;56980;51.826;4.424;2022-09-01T14:21:37;2.58;;;1.20;;
69712;SDS011;56980;51.826;4.424;2022-09-01T14:24:03;2.10;;;1.00;;
69712;SDS011;56980;51.826;4.424;2022-09-01T14:26:29;1.92;;;1.13;;
69712;SDS011;56980;51.826;4.424;2022-09-01T14:28:54;4.40;;;0.90;;
69712;SDS011;56980;51.826;4.424;2022-09-01T14:31:20;3.67;;;0.80;;
69712;SDS011;56980;51.826;4.424;2022-09-01T14:33:46;1.63;;;0.93;;
69712;SDS011;56980;51.826;4.424;2022-09-01T14:36:20;4.30;;;1.10;;
69712;SDS011;56980;51.826;4.424;2022-09-01T14:38:47;3.58;;;0.85;;
69712;SDS011;56980;51.826;4.424;2022-09-01T14:41:17;10.93;;;1.35;;
69712;SDS011;56980;51.826;4.424;2022-09-01T14:43:46;4.78;;;1.60;;
69712;SDS011;56980;51.826;4.424;2022-09-01T14:46:14;1.77;;;0.87;;
69712;SDS011;56980;51.826;4.424;2022-09-01T14:48:40;6.45;;;0.82;;
69712;SDS011;56980;51.826;4.424;2022-09-01T14:51:06;3.10;;;0.82;;
69712;SDS011;56980;51.826;4.424;2022-09-01T14:53:33;2.00;;;0.83;;
69712;SDS011;56980;51.826;4.424;2022-09-01T14:55:59;3.53;;;0.70;;
69712;SDS011;56980;51.826;4.424;2022-09-01T14:58:26;2.58;;;0.90;;
69712;SDS011;56980;51.826;4.424;2022-09-01T15:00:53;1.80;;;0.80;;
69712;SDS011;56980;51.826;4.424;2022-09-01T15:03:20;1.77;;;0.77;;
69712;SDS011;56980;51.826;4.424;2022-09-01T15:05:46;2.33;;;0.90;;
69712;SDS011;56980;51.826;4.424;2022-09-01T15:08:12;3.42;;;1.48;;
69712;SDS011;56980;51.826;4.424;2022-09-01T15:10:38;2.20;;;0.80;;
69712;SDS011;56980;51.826;4.424;2022-09-01T15:13:04;3.60;;;1.08;;
69712;SDS011;56980;51.826;4.424;2022-09-01T15:15:30;5.53;;;0.90;;
69712;SDS011;56980;51.826;4.424;2022-09-01T15:17:57;1.90;;;1.27;;
69712;SDS011;56980;51.826;4.424;2022-09-01T15:20:23;1.63;;;1.08;;
69712;SDS011;56980;51.826;4.424;2022-09-01T15:23:08;4.18;;;1.10;;
69712;SDS011;56980;51.826;4.424;2022-09-01T15:25:34;1.50;;;1.00;;
69712;SDS011;56980;51.826;4.424;2022-09-01T15:27:59;3.23;;;1.03;;
69712;SDS011;56980;51.826;4.424;2022-09-01T15:30:25;7.43;;;1.17;;
69712;SDS011;56980;51.826;4.424;2022-09-01T15:32:52;6.33;;;1.20;;
69712;SDS011;56980;51.826;4.424;2022-09-01T15:35:19;2.75;;;0.90;;
69712;SDS011;56980;51.826;4.424;2022-09-01T15:37:48;4.78;;;1.05;;
69712;SDS011;56980;51.826;4.424;2022-09-01T15:40:15;2.70;;;0.82;;
69712;SDS011;56980;51.826;4.424;2022-09-01T15:42:41;2.97;;;0.90;;
69712;SDS011;56980;51.826;4.424;2022-09-01T15:45:09;3.53;;;1.17;;
69712;SDS011;56980;51.826;4.424;2022-09-01T15:47:36;3.38;;;1.00;;
69712;SDS011;56980;51.826;4.424;2022-09-01T15:50:05;2.43;;;1.03;;
69712;SDS011;56980;51.826;4.424;2022-09-01T15:52:33;2.75;;;1.00;;
69712;SDS011;56980;51.826;4.424;2022-09-01T15:54:58;1.20;;;0.90;;
69712;SDS011;56980;51.826;4.424;2022-09-01T15:57:24;1.65;;;0.95;;
69712;SDS011;56980;51.826;4.424;2022-09-01T15:59:49;1.43;;;1.00;;
69712;SDS011;56980;51.826;4.424;2022-09-01T16:02:15;1.30;;;1.00;;
69712;SDS011;56980;51.826;4.424;2022-09-01T16:04:44;1.50;;;0.90;;
69712;SDS011;56980;51.826;4.424;2022-09-01T16:07:10;4.35;;;0.98;;
69712;SDS011;56980;51.826;4.424;2022-09-01T16:09:35;2.00;;;1.10;;
69712;SDS011;56980;51.826;4.424;2022-09-01T16:12:01;4.53;;;1.00;;
69712;SDS011;56980;51.826;4.424;2022-09-01T16:14:27;3.10;;;1.30;;
69712;SDS011;56980;51.826;4.424;2022-09-01T16:22:18;4.38;;;1.00;;